Airfield :
LOGIN :

Register | Disclaimer

   EN    FR    IT 

 










Legend :    VFR   Marginal VFR   IFR   Intensive IFR   Very Intensive IFR
Visi :
Ceiling :
>= 8 km
>= 3000ft
5 to 8 km
1000 to 3000 ft
1500m to 5 km
500 to 1000 ft
800 to 1500m
200 to 500 ft
< 800m
< 200 ft
Symbols :   Thunderstorms  Fog  Heavy snow  Heavy precipitations  Wind > 20 kt
SIGMETs :     Misc.  Thunderstorms  Icing  Turbulence  Mountain Waves  Volcanic Ashes






- Airport Elevation : 87 ft
- IATA code : FSC


LFKF - Figari

CURRENT METAR :
  • 011430Z AUTO 07006KT 9999 BKN050 13/05 Q1015 NOSIG

EXPIRED METARs :
  • 011400Z AUTO 06009KT 9999 BKN048 14/05 Q1014 NOSIG
  • 011330Z AUTO 06010KT 9999 BKN048 BKN054 14/04 Q1014 NOSIG
  • 011300Z AUTO 06009KT 030V090 9999 BKN049 14/04 Q1015 NOSIG
  • 011230Z AUTO 06008KT 030V100 9999 FEW046 OVC054 14/05 Q1015 NOSIG
  • 011200Z AUTO 07007KT 040V100 9999 BKN046 OVC056 13/04 Q1015 NOSIG
  • 011130Z AUTO 05009KT 9999 BKN043 BKN049 OVC058 13/04 Q1015 NOSIG

TAF TAF LFKF
Valid from the 01 at 09:00 until the 02 at 09:00 UTC


010800Z 0109/0209 06008KT 9999 BKN040



MET'MAP, your aeronautical weather chart ! - Copyright ORBIFLY December 2007 - Disclaimer

ORBIFLY MET'MAP TEAM :

Programming & Development : Alexandra Zaïnal
Original concept : Baudouin d'Aumeries
Technical & hardware support : Manuel Goepfert
Assistance : Marc-Olivier Méhu




SOURCES & CREDITS :

   NOAA